createdAt,value
2018-05-03T00:01:57.469Z,4.67
2018-05-03T00:04:25.121Z,4.37
2018-05-03T00:06:52.830Z,5.40
2018-05-03T00:09:20.513Z,5.60
2018-05-03T00:11:48.213Z,5.87
2018-05-03T00:14:15.921Z,5.67
2018-05-03T00:16:43.598Z,5.80
2018-05-03T00:19:11.341Z,6.07
2018-05-03T00:21:39.020Z,5.37
2018-05-03T00:24:06.689Z,5.40
2018-05-03T00:26:34.409Z,5.20
2018-05-03T00:29:02.845Z,6.13
2018-05-03T00:31:30.543Z,6.87
2018-05-03T00:33:59.018Z,5.90
2018-05-03T00:36:27.485Z,5.30
2018-05-03T00:38:55.174Z,6.27
2018-05-03T00:41:23.642Z,7.00
2018-05-03T00:43:52.082Z,6.70
2018-05-03T00:46:19.759Z,7.30
2018-05-03T00:48:47.493Z,6.43
2018-05-03T00:51:15.157Z,6.37
2018-05-03T00:53:42.833Z,6.87
2018-05-03T00:56:10.533Z,5.97
2018-05-03T00:58:38.970Z,7.80
2018-05-03T01:01:06.685Z,6.33
2018-05-03T01:03:35.161Z,6.27
2018-05-03T01:06:03.630Z,6.97
2018-05-03T01:08:32.093Z,6.27
2018-05-03T01:10:59.793Z,7.00
2018-05-03T01:13:27.489Z,6.67
2018-05-03T01:15:55.157Z,7.00
2018-05-03T01:18:22.862Z,6.30
2018-05-03T01:20:51.321Z,5.90
2018-05-03T01:23:18.994Z,6.27
2018-05-03T01:25:47.465Z,6.47
2018-05-03T01:28:15.165Z,6.03
2018-05-03T01:30:42.845Z,7.17
2018-05-03T01:33:10.572Z,6.00
2018-05-03T01:35:50.850Z,5.70
2018-05-03T01:38:18.613Z,6.00
2018-05-03T01:40:46.293Z,6.27
2018-05-03T01:43:13.970Z,5.23
2018-05-03T01:45:41.681Z,4.93
2018-05-03T01:48:10.121Z,5.13
2018-05-03T01:50:37.817Z,5.63
2018-05-03T01:53:06.293Z,5.93
2018-05-03T01:55:34.737Z,6.30
2018-05-03T01:58:02.433Z,5.80
2018-05-03T02:00:30.904Z,5.47
2018-05-03T02:02:59.500Z,6.30
2018-05-03T02:05:27.966Z,6.67
2018-05-03T02:07:56.449Z,6.60
2018-05-03T02:10:24.941Z,7.00
2018-05-03T02:12:53.378Z,6.67
2018-05-03T02:15:21.109Z,6.00
2018-05-03T02:17:48.788Z,6.50
2018-05-03T02:20:16.461Z,7.03
2018-05-03T02:22:44.181Z,8.50
2018-05-03T02:25:11.849Z,6.50
2018-05-03T02:27:39.549Z,7.10
2018-05-03T02:30:07.250Z,7.57
2018-05-03T02:32:35.693Z,6.90
2018-05-03T02:35:03.453Z,6.40
2018-05-03T02:37:31.179Z,8.30
2018-05-03T02:39:59.078Z,6.70
2018-05-03T02:42:26.837Z,7.03
2018-05-03T02:44:54.702Z,8.13
2018-05-03T02:47:22.417Z,6.87
2018-05-03T02:49:50.091Z,7.80
2018-05-03T02:52:17.822Z,7.17
2018-05-03T02:54:46.265Z,7.93
2018-05-03T02:57:25.908Z,7.80
2018-05-03T03:00:05.550Z,7.50
2018-05-03T03:02:50.930Z,7.97
2018-05-03T03:05:36.249Z,7.07
2018-05-03T03:11:54.246Z,7.83
2018-05-03T03:14:39.656Z,7.70
2018-05-03T03:17:24.874Z,7.87
2018-05-03T03:20:16.117Z,7.47
2018-05-03T03:23:01.499Z,7.80
2018-05-03T03:26:11.554Z,7.30
2018-05-03T03:29:12.085Z,7.17
2018-05-03T03:31:57.493Z,7.20
2018-05-03T03:34:26.086Z,7.47
2018-05-03T03:37:16.213Z,6.67
2018-05-03T03:40:10.313Z,6.93
2018-05-03T03:45:47.633Z,7.23
2018-05-03T03:48:15.335Z,7.50
2018-05-03T03:50:43.009Z,7.43
2018-05-03T03:53:10.740Z,7.23
2018-05-03T03:55:39.223Z,8.07
2018-05-03T03:58:07.663Z,7.70
2018-05-03T04:00:35.357Z,7.80
2018-05-03T04:03:03.856Z,8.40
2018-05-03T04:05:32.329Z,8.10
2018-05-03T04:08:00.773Z,7.73
2018-05-03T04:10:28.476Z,7.77
2018-05-03T04:12:56.184Z,7.70
2018-05-03T04:15:23.858Z,7.43
2018-05-03T04:18:03.405Z,7.50
2018-05-03T04:20:46.919Z,7.53
2018-05-03T04:23:35.177Z,7.17
2018-05-03T04:26:04.737Z,7.43
2018-05-03T04:28:32.409Z,7.47
2018-05-03T04:31:00.109Z,7.20
2018-05-03T04:33:27.787Z,7.00
2018-05-03T04:35:55.479Z,7.10
2018-05-03T04:38:23.187Z,6.87
2018-05-03T04:40:50.865Z,7.33
2018-05-03T04:43:18.561Z,6.97
2018-05-03T04:45:46.367Z,6.80
2018-05-03T04:48:14.065Z,7.67
2018-05-03T04:50:42.513Z,7.30
2018-05-03T04:53:10.248Z,7.23
2018-05-03T04:55:37.926Z,7.93
2018-05-03T04:58:05.613Z,7.80
2018-05-03T05:00:33.318Z,8.90
2018-05-03T05:03:00.990Z,7.37
2018-05-03T05:05:28.707Z,7.90
2018-05-03T05:07:57.190Z,7.97
2018-05-03T05:10:25.756Z,7.43
2018-05-03T05:12:53.449Z,7.53
2018-05-03T05:15:22.081Z,8.37
2018-05-03T05:17:49.893Z,7.70
2018-05-03T05:20:18.529Z,8.47
2018-05-03T05:22:46.395Z,7.87
2018-05-03T05:25:14.162Z,7.30
2018-05-03T05:27:42.641Z,7.53
2018-05-03T05:30:10.508Z,6.70
2018-05-03T05:32:38.374Z,7.33
2018-05-03T05:35:06.817Z,7.20
2018-05-03T05:37:34.517Z,8.60
2018-05-03T05:40:02.219Z,8.87
2018-05-03T05:42:30.674Z,7.93
2018-05-03T05:44:58.389Z,8.53
2018-05-03T05:47:26.072Z,8.07
2018-05-03T05:49:53.775Z,8.47
2018-05-03T05:52:22.237Z,7.80
2018-05-03T05:54:49.948Z,9.00
2018-05-03T05:57:17.641Z,7.87
2018-05-03T05:59:45.356Z,8.87
2018-05-03T06:02:13.837Z,8.30
2018-05-03T06:04:42.281Z,8.53
2018-05-03T06:07:09.981Z,8.27
2018-05-03T06:09:37.689Z,8.57
2018-05-03T06:12:05.365Z,8.50
2018-05-03T06:14:33.074Z,7.57
2018-05-03T06:17:00.793Z,7.70
2018-05-03T06:19:28.635Z,7.70
2018-05-03T06:21:56.500Z,6.83
2018-05-03T06:24:24.186Z,6.57
2018-05-03T06:26:51.858Z,7.30
2018-05-03T06:29:20.337Z,6.20
2018-05-03T06:31:48.774Z,6.33
2018-05-03T06:34:16.468Z,4.50
2018-05-03T06:36:44.193Z,4.80
2018-05-03T06:39:11.869Z,5.60
2018-05-03T06:41:39.567Z,5.77
2018-05-03T06:44:08.041Z,6.00
2018-05-03T06:46:36.478Z,5.40
2018-05-03T06:49:04.177Z,4.53
2018-05-03T06:51:31.907Z,5.07
2018-05-03T06:53:59.601Z,5.70
2018-05-03T06:56:28.073Z,5.57
2018-05-03T06:58:55.775Z,5.63
2018-05-03T07:01:23.475Z,5.73
2018-05-03T07:03:51.143Z,5.53
2018-05-03T07:06:18.845Z,4.73
2018-05-03T07:08:47.370Z,5.63
2018-05-03T07:11:15.091Z,5.00
2018-05-03T07:13:42.830Z,4.77
2018-05-03T07:16:10.540Z,5.97
2018-05-03T07:18:38.336Z,10.03
2018-05-03T07:21:06.049Z,10.77
2018-05-03T07:23:33.725Z,13.10
2018-05-03T07:26:01.432Z,13.50
2018-05-03T07:28:29.150Z,14.87
2018-05-03T07:30:56.851Z,14.07
2018-05-03T07:33:24.570Z,11.77
2018-05-03T07:35:52.273Z,7.13
2018-05-03T07:38:19.965Z,6.37
2018-05-03T07:40:48.539Z,4.63
2018-05-03T07:43:17.021Z,4.50
2018-05-03T07:45:44.725Z,3.83
2018-05-03T07:48:12.397Z,4.40
2018-05-03T07:50:40.126Z,4.47
2018-05-03T07:53:08.659Z,4.43
2018-05-03T07:55:36.333Z,4.37
2018-05-03T07:58:04.036Z,4.33
2018-05-03T08:00:31.709Z,3.60
2018-05-03T08:02:59.401Z,4.07
2018-05-03T08:05:27.101Z,3.20
2018-05-03T08:07:55.542Z,4.07
2018-05-03T08:10:23.241Z,3.13
2018-05-03T08:12:51.705Z,3.00
2018-05-03T08:15:19.416Z,3.00
2018-05-03T08:17:47.104Z,3.13
2018-05-03T08:20:15.572Z,2.67
2018-05-03T08:22:43.261Z,2.67
2018-05-03T08:25:10.945Z,2.93
2018-05-03T08:27:38.673Z,2.60
2018-05-03T08:30:06.345Z,2.67
2018-05-03T08:32:34.025Z,2.77
2018-05-03T08:35:01.724Z,2.20
2018-05-03T08:37:29.401Z,2.10
2018-05-03T08:39:57.091Z,2.20
2018-05-03T08:42:24.798Z,2.30
2018-05-03T08:44:52.495Z,2.00
2018-05-03T08:47:20.203Z,2.60
2018-05-03T08:49:48.678Z,2.13
2018-05-03T08:52:17.121Z,2.23
2018-05-03T08:54:44.817Z,1.90
2018-05-03T08:57:13.301Z,2.33
2018-05-03T08:59:41.761Z,2.63
2018-05-03T09:02:09.437Z,1.90
2018-05-03T09:04:37.987Z,2.30
2018-05-03T09:07:05.686Z,1.93
2018-05-03T09:09:34.121Z,2.50
2018-05-03T09:12:01.823Z,2.30
2018-05-03T09:14:30.266Z,2.70
2018-05-03T09:16:57.937Z,2.30
2018-05-03T09:19:25.657Z,2.40
2018-05-03T09:21:53.325Z,2.23
2018-05-03T09:24:20.992Z,2.00
2018-05-03T09:26:48.771Z,2.30
2018-05-03T09:29:16.437Z,2.30
2018-05-03T09:31:44.106Z,2.50
2018-05-03T09:34:11.805Z,2.10
2018-05-03T09:36:40.238Z,2.30
2018-05-03T09:39:07.944Z,2.20
2018-05-03T09:41:35.697Z,2.43
2018-05-03T09:44:03.389Z,2.47
2018-05-03T09:46:31.070Z,1.93
2018-05-03T09:48:58.786Z,1.80
2018-05-03T09:51:27.257Z,1.50
2018-05-03T09:53:54.928Z,1.83
2018-05-03T09:56:23.407Z,1.30
2018-05-03T09:58:51.865Z,1.40
2018-05-03T10:01:19.581Z,1.50
2018-05-03T10:03:47.287Z,1.20
2018-05-03T10:06:14.965Z,1.20
2018-05-03T10:08:42.667Z,1.30
2018-05-03T10:11:10.433Z,1.33
2018-05-03T10:13:38.129Z,1.40
2018-05-03T10:16:05.797Z,1.47
2018-05-03T10:18:33.525Z,1.20
2018-05-03T10:21:01.212Z,1.40
2018-05-03T10:23:28.889Z,1.47
2018-05-03T10:25:56.597Z,1.80
2018-05-03T10:28:24.281Z,1.93
2018-05-03T10:30:51.972Z,1.80
2018-05-03T10:33:19.762Z,2.80
2018-05-03T10:35:48.243Z,3.43
2018-05-03T10:38:15.965Z,2.70
2018-05-03T10:40:43.689Z,2.70
2018-05-03T10:43:11.389Z,3.10
2018-05-03T10:45:39.081Z,3.33
2018-05-03T10:48:07.590Z,2.97
2018-05-03T10:50:35.265Z,2.53
2018-05-03T10:53:02.938Z,2.57
2018-05-03T10:55:30.642Z,2.50
2018-05-03T10:57:59.090Z,2.33
2018-05-03T11:00:26.793Z,2.60
2018-05-03T11:02:55.265Z,2.53
2018-05-03T11:05:23.711Z,2.30
2018-05-03T11:07:52.229Z,2.37
2018-05-03T11:10:20.704Z,2.20
2018-05-03T11:12:49.181Z,2.30
2018-05-03T11:15:16.853Z,2.80
2018-05-03T11:17:45.353Z,2.10
2018-05-03T11:20:13.050Z,2.77
2018-05-03T11:22:40.723Z,2.80
2018-05-03T11:25:08.445Z,2.53
2018-05-03T11:27:36.125Z,2.23
2018-05-03T11:30:03.836Z,2.60
2018-05-03T11:32:32.317Z,2.80
2018-05-03T11:35:00.759Z,2.33
2018-05-03T11:37:28.469Z,2.60
2018-05-03T11:39:56.941Z,2.60
2018-05-03T11:42:25.386Z,2.70
2018-05-03T11:44:53.086Z,2.60
2018-05-03T11:47:21.557Z,2.37
2018-05-03T11:49:50.020Z,2.30
2018-05-03T11:52:17.713Z,2.93
2018-05-03T11:54:46.213Z,2.70
2018-05-03T11:57:13.885Z,2.93
2018-05-03T11:59:41.553Z,2.40
2018-05-03T12:02:09.257Z,3.30
2018-05-03T12:04:36.929Z,3.00
2018-05-03T12:07:05.389Z,2.70
2018-05-03T12:09:33.173Z,3.13
2018-05-03T12:12:01.614Z,3.17
2018-05-03T12:14:29.340Z,3.40
2018-05-03T12:16:57.045Z,3.10
2018-05-03T12:19:24.764Z,3.20
2018-05-03T12:21:52.434Z,3.00
2018-05-03T12:24:20.207Z,3.50
2018-05-03T12:26:47.874Z,3.10
2018-05-03T12:29:15.570Z,3.57
2018-05-03T12:31:43.313Z,3.60
2018-05-03T12:34:10.985Z,4.10
2018-05-03T12:36:38.665Z,3.83
2018-05-03T12:39:07.146Z,3.60
2018-05-03T12:41:35.584Z,4.33
2018-05-03T12:44:03.288Z,3.80
2018-05-03T12:46:31.768Z,4.43
2018-05-03T12:49:00.205Z,3.83
2018-05-03T12:51:27.901Z,3.87
2018-05-03T12:53:56.418Z,3.80
2018-05-03T12:56:24.097Z,4.80
2018-05-03T12:58:51.794Z,4.13
2018-05-03T13:01:19.497Z,4.00
2018-05-03T13:03:47.190Z,4.53
2018-05-03T13:06:14.878Z,4.63
2018-05-03T13:08:42.602Z,4.97
2018-05-03T13:11:10.297Z,4.20
2018-05-03T13:13:37.985Z,4.67
2018-05-03T13:16:06.477Z,4.87
2018-05-03T13:18:34.963Z,4.33
2018-05-03T13:21:02.634Z,4.47
2018-05-03T13:23:30.576Z,4.53
2018-05-03T13:25:59.048Z,5.63
2018-05-03T13:28:27.498Z,5.50
2018-05-03T13:30:55.254Z,5.23
2018-05-03T13:33:22.934Z,5.00
2018-05-03T13:35:50.641Z,5.03
2018-05-03T13:38:18.345Z,5.57
2018-05-03T13:40:46.078Z,5.47
2018-05-03T13:43:13.899Z,5.17
2018-05-03T13:45:41.577Z,5.60
2018-05-03T13:48:10.026Z,5.93
2018-05-03T13:50:37.744Z,6.07
2018-05-03T13:53:05.448Z,5.30
2018-05-03T13:55:33.249Z,5.63
2018-05-03T13:58:00.893Z,5.73
2018-05-03T14:00:29.374Z,5.93
2018-05-03T14:02:57.840Z,5.90
2018-05-03T14:05:25.522Z,6.13
2018-05-03T14:07:53.993Z,6.17
2018-05-03T14:10:22.457Z,6.03
2018-05-03T14:12:50.141Z,6.83
2018-05-03T14:15:18.614Z,6.47
2018-05-03T14:17:47.093Z,6.20
2018-05-03T14:20:15.546Z,6.33
2018-05-03T14:22:43.313Z,7.70
2018-05-03T14:25:11.003Z,6.43
2018-05-03T14:27:39.447Z,7.10
2018-05-03T14:30:07.165Z,7.57
2018-05-03T14:32:34.841Z,7.93
2018-05-03T14:35:02.538Z,8.47
2018-05-03T14:37:30.247Z,9.27
2018-05-03T14:39:57.936Z,9.33
2018-05-03T14:42:25.645Z,8.50
2018-05-03T14:44:54.129Z,10.13
2018-05-03T14:47:22.643Z,9.73
2018-05-03T14:49:51.090Z,9.37
2018-05-03T14:52:19.565Z,8.90
2018-05-03T14:54:48.029Z,9.00
2018-05-03T14:57:15.875Z,9.53
2018-05-03T14:59:43.742Z,9.37
2018-05-03T15:02:11.445Z,9.40
2018-05-03T15:04:39.984Z,9.37
2018-05-03T15:07:07.685Z,8.67
2018-05-03T15:09:36.126Z,9.37
2018-05-03T15:12:03.991Z,9.67
2018-05-03T15:14:31.855Z,9.73
2018-05-03T15:16:59.721Z,9.13
2018-05-03T15:19:27.429Z,9.67
2018-05-03T15:21:56.070Z,9.10
2018-05-03T15:24:23.872Z,9.93
2018-05-03T15:26:52.414Z,8.93
2018-05-03T15:29:20.278Z,9.10
2018-05-03T15:31:48.040Z,8.87
2018-05-03T15:34:15.725Z,10.27
2018-05-03T15:36:43.442Z,11.13
2018-05-03T15:39:11.134Z,10.17
2018-05-03T15:41:38.949Z,10.30
2018-05-03T15:44:06.755Z,9.93
2018-05-03T15:46:34.458Z,8.47
2018-05-03T15:49:02.897Z,8.27
2018-05-03T15:51:30.606Z,9.10
2018-05-03T15:53:59.129Z,7.77
2018-05-03T15:56:26.802Z,7.50
2018-05-03T15:58:54.665Z,7.33
2018-05-03T16:01:22.340Z,8.37
2018-05-03T16:03:50.049Z,6.87
2018-05-03T16:06:17.753Z,7.57
2018-05-03T16:08:45.437Z,7.07
2018-05-03T16:11:13.137Z,7.27
2018-05-03T16:13:40.849Z,6.00
2018-05-03T16:16:08.549Z,5.87
2018-05-03T16:18:36.997Z,5.83
2018-05-03T16:21:04.744Z,5.83
2018-05-03T16:23:32.435Z,6.60
2018-05-03T16:26:00.894Z,6.37
2018-05-03T16:28:28.602Z,6.00
2018-05-03T16:30:56.277Z,5.60
2018-05-03T16:33:24.169Z,6.37
2018-05-03T16:35:52.039Z,6.77
2018-05-03T16:38:19.837Z,6.73
2018-05-03T16:40:48.356Z,6.43
2018-05-03T16:43:16.817Z,6.07
2018-05-03T16:45:44.525Z,6.50
2018-05-03T16:48:12.217Z,7.10
2018-05-03T16:50:40.717Z,6.77
2018-05-03T16:53:09.162Z,6.03
2018-05-03T16:55:36.841Z,6.70
2018-05-03T16:58:05.370Z,6.30
2018-05-03T17:00:33.073Z,5.73
2018-05-03T17:03:00.782Z,5.73
2018-05-03T17:05:28.513Z,6.23
2018-05-03T17:07:56.953Z,6.90
2018-05-03T17:10:24.661Z,6.50
2018-05-03T17:12:53.137Z,5.80
2018-05-03T17:15:22.246Z,6.87
2018-05-03T17:17:52.207Z,6.07
2018-05-03T17:20:19.921Z,7.17
2018-05-03T17:22:47.624Z,7.37
2018-05-03T17:25:15.388Z,7.90
2018-05-03T17:27:43.140Z,7.67
2018-05-03T17:30:10.822Z,6.93
2018-05-03T17:32:38.497Z,10.30
2018-05-03T17:35:06.358Z,9.57
2018-05-03T17:37:34.214Z,9.00
2018-05-03T17:40:02.071Z,15.03
2018-05-03T17:42:30.589Z,16.00
2018-05-03T17:44:59.050Z,10.50
2018-05-03T17:47:26.769Z,11.03
2018-05-03T17:49:54.469Z,8.23
2018-05-03T17:52:22.181Z,10.00
2018-05-03T17:54:49.865Z,13.60
2018-05-03T17:57:17.563Z,7.97
2018-05-03T17:59:46.122Z,17.60
2018-05-03T18:02:13.884Z,10.93
2018-05-03T18:04:41.612Z,10.20
2018-05-03T18:07:09.412Z,9.43
2018-05-03T18:09:37.174Z,9.43
2018-05-03T18:12:05.042Z,9.07
2018-05-03T18:14:32.758Z,13.30
2018-05-03T18:17:00.568Z,11.10
2018-05-03T18:19:28.432Z,10.20
2018-05-03T18:21:56.298Z,9.90
2018-05-03T18:24:23.995Z,9.83
2018-05-03T18:26:52.643Z,10.20
2018-05-03T18:29:20.325Z,9.50
2018-05-03T18:31:48.038Z,10.07
2018-05-03T18:34:15.868Z,9.77
2018-05-03T18:36:43.510Z,9.47
2018-05-03T18:39:11.214Z,10.30
2018-05-03T18:41:39.027Z,10.43
2018-05-03T18:44:06.747Z,10.23
2018-05-03T18:46:34.485Z,11.30
2018-05-03T18:49:02.189Z,10.00
2018-05-03T18:51:29.893Z,10.00
2018-05-03T18:53:57.581Z,10.27
2018-05-03T18:56:26.056Z,10.97
2018-05-03T18:58:54.495Z,9.67
2018-05-03T19:01:22.331Z,12.57
2018-05-03T19:03:50.807Z,12.30
2018-05-03T19:06:18.539Z,10.87
2018-05-03T19:08:47.017Z,11.47
2018-05-03T19:11:15.511Z,16.83
2018-05-03T19:13:43.221Z,14.33
2018-05-03T19:16:10.897Z,12.13
2018-05-03T19:18:38.629Z,10.30
2018-05-03T19:21:06.305Z,12.27
2018-05-03T19:23:34.065Z,6.93
2018-05-03T19:26:02.135Z,8.87
2018-05-03T19:28:29.805Z,6.80
2018-05-03T19:30:57.477Z,5.50
2018-05-03T19:33:25.189Z,4.63
2018-05-03T19:35:52.913Z,6.30
2018-05-03T19:38:20.745Z,6.40
2018-05-03T19:40:48.449Z,5.70
2018-05-03T19:43:16.889Z,5.53
2018-05-03T19:45:44.593Z,4.17
2018-05-03T19:48:13.065Z,5.60
2018-05-03T19:50:41.533Z,5.27
2018-05-03T19:53:09.213Z,4.17
2018-05-03T19:55:37.681Z,3.97
2018-05-03T19:58:05.409Z,3.20
2018-05-03T20:00:33.129Z,2.93
2018-05-03T20:03:00.862Z,2.50
2018-05-03T20:05:28.653Z,2.60
2018-05-03T20:07:57.101Z,2.23
2018-05-03T20:10:24.807Z,2.70
2018-05-03T20:12:52.490Z,2.67
2018-05-03T20:15:20.442Z,2.30
2018-05-03T20:17:48.129Z,3.73
2018-05-03T20:20:15.798Z,3.23
2018-05-03T20:22:43.499Z,2.90
2018-05-03T20:25:11.965Z,2.57
2018-05-03T20:27:39.662Z,3.53
2018-05-03T20:30:07.330Z,3.00
2018-05-03T20:32:35.062Z,2.60
2018-05-03T20:35:03.503Z,2.23
2018-05-03T20:37:31.208Z,1.83
2018-05-03T20:39:59.843Z,2.10
2018-05-03T20:42:27.606Z,2.23
2018-05-03T20:44:55.302Z,2.70
2018-05-03T20:47:23.769Z,2.40
2018-05-03T20:49:51.464Z,2.40
2018-05-03T20:52:19.141Z,2.33
2018-05-03T20:54:46.842Z,2.43
2018-05-03T20:57:14.535Z,2.17
2018-05-03T20:59:43.075Z,1.97
2018-05-03T21:02:10.779Z,2.00
2018-05-03T21:04:39.214Z,2.40
2018-05-03T21:07:07.028Z,1.90
2018-05-03T21:09:34.770Z,1.93
2018-05-03T21:12:02.614Z,1.60
2018-05-03T21:14:30.319Z,1.97
2018-05-03T21:16:58.894Z,2.10
2018-05-03T21:19:27.349Z,1.90
2018-05-03T21:21:55.028Z,1.23
2018-05-03T21:24:23.521Z,1.80
2018-05-03T21:26:51.953Z,1.53
2018-05-03T21:29:19.621Z,1.63
2018-05-03T21:31:47.326Z,1.70
2018-05-03T21:34:15.858Z,1.60
2018-05-03T21:36:43.582Z,1.77
2018-05-03T21:39:11.285Z,1.70
2018-05-03T21:41:38.984Z,1.83
2018-05-03T21:44:07.561Z,1.90
2018-05-03T21:46:36.026Z,2.17
2018-05-03T21:49:03.709Z,1.70
2018-05-03T21:51:32.182Z,1.70
2018-05-03T21:54:00.653Z,1.70
2018-05-03T21:56:28.325Z,1.60
2018-05-03T21:58:56.780Z,1.80
2018-05-03T22:01:24.477Z,1.77
2018-05-03T22:03:53.003Z,1.90
2018-05-03T22:06:20.645Z,1.80
2018-05-03T22:08:48.345Z,2.10
2018-05-03T22:11:16.041Z,1.80
2018-05-03T22:13:44.483Z,2.10
2018-05-03T22:16:12.345Z,1.90
2018-05-03T22:18:40.018Z,1.90
2018-05-03T22:21:07.762Z,1.90
2018-05-03T22:23:35.626Z,1.83
2018-05-03T22:26:03.332Z,2.60
2018-05-03T22:28:31.869Z,1.90
2018-05-03T22:30:59.734Z,2.27
2018-05-03T22:33:27.604Z,2.13
2018-05-03T22:35:56.694Z,1.70
2018-05-03T22:38:24.560Z,2.00
2018-05-03T22:40:52.284Z,1.90
2018-05-03T22:43:20.087Z,1.63
2018-05-03T22:45:47.785Z,1.60
2018-05-03T22:48:16.227Z,2.00
2018-05-03T22:50:44.093Z,1.80
2018-05-03T22:53:11.959Z,1.77
2018-05-03T22:55:39.655Z,1.70
2018-05-03T22:58:08.098Z,2.10
2018-05-03T23:00:35.805Z,1.77
2018-05-03T23:03:04.274Z,1.93
2018-05-03T23:05:32.823Z,1.57
2018-05-03T23:08:00.688Z,1.70
2018-05-03T23:10:28.357Z,2.20
2018-05-03T23:12:56.023Z,1.63
2018-05-03T23:15:23.721Z,1.97
2018-05-03T23:17:52.253Z,2.37
2018-05-03T23:20:20.120Z,2.60
2018-05-03T23:22:47.821Z,2.00
2018-05-03T23:25:16.289Z,1.93
2018-05-03T23:27:43.962Z,1.90
2018-05-03T23:30:12.605Z,1.70
2018-05-03T23:32:40.301Z,1.50
2018-05-03T23:35:08.740Z,2.10
2018-05-03T23:37:36.441Z,1.70
2018-05-03T23:40:04.890Z,2.20
2018-05-03T23:42:32.689Z,1.80
2018-05-03T23:45:01.159Z,1.80
2018-05-03T23:47:28.833Z,2.30
2018-05-03T23:49:57.294Z,1.70
2018-05-03T23:52:25.150Z,1.40
2018-05-03T23:54:53.718Z,1.43
2018-05-03T23:57:21.482Z,1.90
2018-05-03T23:59:49.206Z,1.70
